createdAt,value
2022-12-23T00:01:57.654Z,6.50
2022-12-23T00:06:14.411Z,6.50
2022-12-23T00:10:19.831Z,6.50
2022-12-23T00:14:44.358Z,6.50
2022-12-23T00:18:50.164Z,6.50
2022-12-23T00:23:07.530Z,6.40
2022-12-23T00:27:13.031Z,6.40
2022-12-23T00:31:19.933Z,6.40
2022-12-23T00:35:25.458Z,6.40
2022-12-23T00:39:54.804Z,6.30
2022-12-23T00:44:01.327Z,6.30
2022-12-23T00:48:25.325Z,6.30
2022-12-23T00:52:31.047Z,6.30
2022-12-23T00:56:36.597Z,6.30
2022-12-23T01:01:01.458Z,6.30
2022-12-23T01:05:41.862Z,6.30
2022-12-23T01:09:47.471Z,6.30
2022-12-23T01:13:53.032Z,6.30
2022-12-23T01:17:58.763Z,6.30
2022-12-23T01:22:04.313Z,6.30
2022-12-23T01:26:11.870Z,6.30
2022-12-23T01:30:17.475Z,6.30
2022-12-23T01:34:23.044Z,6.30
2022-12-23T01:38:29.703Z,6.30
2022-12-23T01:42:43.885Z,6.30
2022-12-23T01:46:49.404Z,6.30
2022-12-23T01:51:19.066Z,6.30
2022-12-23T01:55:28.034Z,6.40
2022-12-23T01:59:54.007Z,6.40
2022-12-23T02:04:05.012Z,6.40
2022-12-23T02:08:29.464Z,6.40
2022-12-23T02:13:02.015Z,6.40
2022-12-23T02:17:31.694Z,6.40
2022-12-23T02:22:12.410Z,6.40
2022-12-23T02:27:09.684Z,6.40
2022-12-23T02:31:40.456Z,6.40
2022-12-23T02:35:58.085Z,6.40
2022-12-23T02:40:26.814Z,6.50
2022-12-23T02:44:44.628Z,6.50
2022-12-23T02:49:13.980Z,6.50
2022-12-23T02:53:29.671Z,6.50
2022-12-23T02:57:40.084Z,6.50
2022-12-23T03:01:47.531Z,6.50
2022-12-23T03:05:54.957Z,6.60
2022-12-23T03:10:22.590Z,6.60
2022-12-23T03:14:49.681Z,6.60
2022-12-23T03:19:07.151Z,6.60
2022-12-23T03:23:37.423Z,6.70
2022-12-23T03:27:57.339Z,6.70
2022-12-23T03:32:05.266Z,6.70
2022-12-23T03:36:18.026Z,6.70
2022-12-23T03:40:28.851Z,6.70
2022-12-23T03:44:51.770Z,6.70
2022-12-23T03:49:16.715Z,6.70
2022-12-23T03:53:31.818Z,6.70
2022-12-23T03:58:07.896Z,6.80
2022-12-23T04:02:37.251Z,6.80
2022-12-23T04:07:06.522Z,6.70
2022-12-23T04:11:12.837Z,6.70
2022-12-23T04:15:24.606Z,6.80
2022-12-23T04:19:30.126Z,6.80
2022-12-23T04:23:35.605Z,6.80
2022-12-23T04:27:41.436Z,6.80
2022-12-23T04:31:46.975Z,6.80
2022-12-23T04:35:52.608Z,6.80
2022-12-23T04:39:58.098Z,6.90
2022-12-23T04:44:03.572Z,6.90
2022-12-23T04:48:09.596Z,6.90
2022-12-23T04:52:15.037Z,6.80
2022-12-23T04:56:21.241Z,6.90
2022-12-23T05:00:26.761Z,6.90
2022-12-23T05:04:32.308Z,6.90
2022-12-23T05:08:37.780Z,6.90
2022-12-23T05:12:43.402Z,6.90
2022-12-23T05:16:49.043Z,6.90
2022-12-23T05:20:54.664Z,6.90
2022-12-23T05:25:00.429Z,6.90
2022-12-23T05:29:06.181Z,6.90
2022-12-23T05:33:12.019Z,7.00
2022-12-23T05:37:17.512Z,7.00
2022-12-23T05:41:23.403Z,7.00
2022-12-23T05:45:29.168Z,7.00
2022-12-23T05:49:34.781Z,7.00
2022-12-23T05:53:40.694Z,7.00
2022-12-23T05:57:46.151Z,7.00
2022-12-23T06:01:51.822Z,7.00
2022-12-23T06:05:57.520Z,7.00
2022-12-23T06:10:04.150Z,7.00
2022-12-23T06:14:10.552Z,7.10
2022-12-23T06:18:16.052Z,7.10
2022-12-23T06:22:21.827Z,7.10
2022-12-23T06:26:27.405Z,7.10
2022-12-23T06:30:32.913Z,7.10
2022-12-23T06:34:38.392Z,7.20
2022-12-23T06:38:44.008Z,7.10
2022-12-23T06:42:49.651Z,7.10
2022-12-23T06:46:55.129Z,7.20
2022-12-23T06:51:00.719Z,7.10
2022-12-23T06:55:06.986Z,7.10
2022-12-23T06:59:12.612Z,7.10
2022-12-23T07:03:18.371Z,7.10
2022-12-23T07:07:24.159Z,7.10
2022-12-23T07:11:30.054Z,7.20
2022-12-23T07:15:37.564Z,7.20
2022-12-23T07:19:43.119Z,7.20
2022-12-23T07:23:48.573Z,7.20
2022-12-23T07:27:57.049Z,7.20
2022-12-23T07:32:03.172Z,7.20
2022-12-23T07:36:09.221Z,7.20
2022-12-23T07:40:14.928Z,7.20
2022-12-23T07:44:20.519Z,7.30
2022-12-23T07:48:26.118Z,7.30
2022-12-23T07:52:31.643Z,7.30
2022-12-23T07:56:37.201Z,7.30
2022-12-23T08:00:42.604Z,7.30
2022-12-23T08:04:48.081Z,7.30
2022-12-23T08:08:53.681Z,7.30
2022-12-23T08:13:02.598Z,7.30
2022-12-23T08:17:08.602Z,7.30
2022-12-23T08:21:19.341Z,7.30
2022-12-23T08:25:25.005Z,7.30
2022-12-23T08:29:36.084Z,7.30
2022-12-23T08:33:44.884Z,7.40
2022-12-23T08:37:50.364Z,7.40
2022-12-23T08:41:56.184Z,7.40
2022-12-23T08:46:02.454Z,7.50
2022-12-23T08:50:08.636Z,7.50
2022-12-23T08:54:14.305Z,7.50
2022-12-23T08:58:20.134Z,7.50
2022-12-23T09:02:25.764Z,7.60
2022-12-23T09:06:36.954Z,7.60
2022-12-23T09:10:44.184Z,7.60
2022-12-23T09:14:49.657Z,7.60
2022-12-23T09:18:56.149Z,7.60
2022-12-23T09:23:02.829Z,7.60
2022-12-23T09:27:08.319Z,7.60
2022-12-23T09:31:14.740Z,7.70
2022-12-23T09:35:20.951Z,7.70
2022-12-23T09:39:26.538Z,7.70
2022-12-23T09:44:16.762Z,7.70
2022-12-23T09:48:28.711Z,7.80
2022-12-23T09:52:48.585Z,7.80
2022-12-23T09:57:03.963Z,7.80
2022-12-23T10:01:31.701Z,7.80
2022-12-23T10:06:05.861Z,7.80
2022-12-23T10:10:25.335Z,7.90
2022-12-23T10:14:34.494Z,7.90
2022-12-23T10:19:15.058Z,7.90
2022-12-23T10:23:33.915Z,7.90
2022-12-23T10:27:42.107Z,8.00
2022-12-23T10:32:15.485Z,7.90
2022-12-23T10:36:55.259Z,7.90
2022-12-23T10:41:16.558Z,7.90
2022-12-23T10:45:35.646Z,8.00
2022-12-23T10:50:25.835Z,8.00
2022-12-23T10:54:36.450Z,8.00
2022-12-23T10:58:46.504Z,8.00
2022-12-23T11:03:21.336Z,8.00
2022-12-23T11:07:45.659Z,8.10
2022-12-23T11:12:01.655Z,8.10
2022-12-23T11:16:25.770Z,8.10
2022-12-23T11:20:32.666Z,8.10
2022-12-23T11:24:43.166Z,8.10
2022-12-23T11:28:53.003Z,8.10
2022-12-23T11:32:58.871Z,8.20
2022-12-23T11:37:07.500Z,8.20
2022-12-23T11:41:21.015Z,8.20
2022-12-23T11:45:31.089Z,8.20
2022-12-23T11:49:58.074Z,8.10
2022-12-23T11:54:03.846Z,8.20
2022-12-23T11:58:19.328Z,8.20
2022-12-23T12:02:43.541Z,8.20
2022-12-23T12:06:56.339Z,8.20
2022-12-23T12:11:08.521Z,8.20
2022-12-23T12:15:40.853Z,8.20
2022-12-23T12:20:01.395Z,8.30
2022-12-23T12:24:24.772Z,8.20
2022-12-23T12:28:48.773Z,8.20
2022-12-23T12:33:05.341Z,8.20
2022-12-23T12:37:27.975Z,8.20
2022-12-23T12:41:40.044Z,8.20
2022-12-23T12:46:01.503Z,8.20
2022-12-23T12:50:23.620Z,8.30
2022-12-23T12:55:04.451Z,8.20
2022-12-23T12:59:26.061Z,8.30
2022-12-23T13:04:02.342Z,8.30
2022-12-23T13:08:39.510Z,8.20
2022-12-23T13:13:29.636Z,8.20
2022-12-23T13:17:45.918Z,8.20
2022-12-23T13:22:15.704Z,8.20
2022-12-23T13:26:33.095Z,8.20
2022-12-23T13:30:47.886Z,8.20
2022-12-23T13:35:00.580Z,8.10
2022-12-23T13:39:36.950Z,8.10
2022-12-23T13:43:57.658Z,8.20
2022-12-23T13:48:38.432Z,8.10
2022-12-23T13:53:28.248Z,8.10
2022-12-23T13:58:05.792Z,8.10
2022-12-23T14:02:36.537Z,8.00
2022-12-23T14:06:45.167Z,8.00
2022-12-23T14:10:57.786Z,8.00
2022-12-23T14:15:24.590Z,8.00
2022-12-23T14:19:54.860Z,8.00
2022-12-23T14:24:18.197Z,7.90
2022-12-23T14:29:03.315Z,7.90
2022-12-23T14:33:36.375Z,7.90
2022-12-23T14:37:43.003Z,7.90
2022-12-23T14:41:53.316Z,7.80
2022-12-23T14:46:05.675Z,7.80
2022-12-23T14:50:33.953Z,7.70
2022-12-23T14:54:39.548Z,7.70
2022-12-23T14:59:12.465Z,7.70
2022-12-23T15:03:20.628Z,7.70
2022-12-23T15:07:43.200Z,7.60
2022-12-23T15:11:48.915Z,7.60
2022-12-23T15:16:01.354Z,7.50
2022-12-23T15:20:10.434Z,7.50
2022-12-23T15:24:22.162Z,7.50
2022-12-23T15:28:39.962Z,7.40
2022-12-23T15:32:48.360Z,7.40
2022-12-23T15:36:56.966Z,7.30
2022-12-23T15:41:06.537Z,7.30
2022-12-23T15:45:24.051Z,7.20
2022-12-23T15:49:29.639Z,7.20
2022-12-23T15:53:39.052Z,7.10
2022-12-23T15:57:50.379Z,7.00
2022-12-23T16:01:56.665Z,6.90
2022-12-23T16:06:17.343Z,6.90
2022-12-23T16:10:22.881Z,6.80
2022-12-23T16:14:39.033Z,6.70
2022-12-23T16:18:47.770Z,6.60
2022-12-23T16:22:57.481Z,6.50
2022-12-23T16:27:03.334Z,6.50
2022-12-23T16:31:10.788Z,6.50
2022-12-23T16:35:41.804Z,6.40
2022-12-23T16:39:47.266Z,6.40
2022-12-23T16:43:53.197Z,6.30
2022-12-23T16:47:59.632Z,6.30
2022-12-23T16:52:14.680Z,6.20
2022-12-23T16:56:23.541Z,6.20
2022-12-23T17:00:29.000Z,6.20
2022-12-23T17:04:34.470Z,6.10
2022-12-23T17:08:40.631Z,6.10
2022-12-23T17:12:47.290Z,6.10
2022-12-23T17:16:53.901Z,6.10
2022-12-23T17:20:59.679Z,6.10
2022-12-23T17:25:05.797Z,6.10
2022-12-23T17:29:12.863Z,6.10
2022-12-23T17:33:20.232Z,6.10
2022-12-23T17:37:25.825Z,6.00
2022-12-23T17:41:33.341Z,5.90
2022-12-23T17:45:39.052Z,5.90
2022-12-23T17:49:45.448Z,5.90
2022-12-23T17:53:57.779Z,5.80
2022-12-23T17:58:03.764Z,5.80
2022-12-23T18:02:32.976Z,5.80
2022-12-23T18:06:38.729Z,6.40
2022-12-23T18:10:44.667Z,6.00
2022-12-23T18:14:50.370Z,5.90
2022-12-23T18:18:57.191Z,5.80
2022-12-23T18:23:02.974Z,5.70
2022-12-23T18:27:22.510Z,5.60
2022-12-23T18:31:28.327Z,5.60
2022-12-23T18:35:39.727Z,5.50
2022-12-23T18:39:45.584Z,5.50
2022-12-23T18:43:51.828Z,5.50
2022-12-23T18:47:58.577Z,5.40
2022-12-23T18:52:07.428Z,5.40
2022-12-23T18:56:14.683Z,5.30
2022-12-23T19:00:24.179Z,5.30
2022-12-23T19:04:29.644Z,5.20
2022-12-23T19:08:36.471Z,5.20
2022-12-23T19:12:42.052Z,5.20
2022-12-23T19:16:51.855Z,5.10
2022-12-23T19:20:58.038Z,5.20
2022-12-23T19:25:06.501Z,5.10
2022-12-23T19:29:12.521Z,5.10
2022-12-23T19:33:18.086Z,5.10
2022-12-23T19:37:23.623Z,5.10
2022-12-23T19:41:29.069Z,5.00
2022-12-23T19:45:34.536Z,5.00
2022-12-23T19:49:40.672Z,5.00
2022-12-23T19:53:50.273Z,5.00
2022-12-23T19:57:55.874Z,5.00
2022-12-23T20:02:01.450Z,5.00
2022-12-23T20:06:10.195Z,5.00
2022-12-23T20:10:15.746Z,4.90
2022-12-23T20:14:21.872Z,4.90
2022-12-23T20:18:27.488Z,4.90
2022-12-23T20:22:33.029Z,4.90
2022-12-23T20:26:38.977Z,4.90
2022-12-23T20:30:49.035Z,4.90
2022-12-23T20:34:54.570Z,4.90
2022-12-23T20:39:00.373Z,4.90
2022-12-23T20:43:09.146Z,4.90
2022-12-23T20:47:17.500Z,4.90
2022-12-23T20:51:26.005Z,4.90
2022-12-23T20:55:32.545Z,4.90
2022-12-23T20:59:38.304Z,4.90
2022-12-23T21:03:43.929Z,5.00
2022-12-23T21:07:49.716Z,5.00
2022-12-23T21:11:55.512Z,5.00
2022-12-23T21:16:09.143Z,4.90
2022-12-23T21:20:14.945Z,4.90
2022-12-23T21:24:21.085Z,4.90
2022-12-23T21:28:26.537Z,4.90
2022-12-23T21:32:32.007Z,4.90
2022-12-23T21:36:38.936Z,4.90
2022-12-23T21:40:44.537Z,4.90
2022-12-23T21:44:50.001Z,4.90
2022-12-23T21:48:57.356Z,4.90
2022-12-23T21:53:02.827Z,4.90
2022-12-23T21:57:09.139Z,4.90
2022-12-23T22:01:20.999Z,4.90
2022-12-23T22:05:26.880Z,4.90
2022-12-23T22:09:32.739Z,4.90
2022-12-23T22:13:38.970Z,4.90
2022-12-23T22:17:44.489Z,4.90
2022-12-23T22:21:50.082Z,4.90
2022-12-23T22:25:56.091Z,4.90
2022-12-23T22:30:01.850Z,4.90
2022-12-23T22:34:09.093Z,4.90
2022-12-23T22:38:14.607Z,4.90
2022-12-23T22:42:20.178Z,4.90
2022-12-23T22:46:26.358Z,5.00
2022-12-23T22:50:32.203Z,5.00
2022-12-23T22:54:37.768Z,5.00
2022-12-23T22:58:43.482Z,5.00
2022-12-23T23:02:49.023Z,5.00
2022-12-23T23:06:54.589Z,5.00
2022-12-23T23:11:03.267Z,5.00
2022-12-23T23:15:09.579Z,5.00
2022-12-23T23:19:16.430Z,5.00
2022-12-23T23:23:22.344Z,5.00
2022-12-23T23:27:27.879Z,5.00
2022-12-23T23:31:42.733Z,5.00
2022-12-23T23:35:58.689Z,5.00
2022-12-23T23:40:05.182Z,5.00
2022-12-23T23:44:12.093Z,5.00
2022-12-23T23:48:18.716Z,5.00
2022-12-23T23:52:24.183Z,5.00
2022-12-23T23:56:35.721Z,5.00
